Latest Weather Observations for Bickley

IDW60901

Issued at 10:21 pm WST Sunday 17 November 2019 (issued every 10 minutes, with the page automatically refreshed every 10 minutes)

About weather observations | Map of Perth area stations | Latest observations for Perth area | Other Formats
Station Details ID: 009240 Name: BICKLEY Lat: -32.01 Lon: 116.14 Height: 384.0 m
Data from the previous 72 hours. | See also: Recent months at Bickley
Date/Time
WST
Temp
°C
App
Temp
°C
Dew
Point
°C
Rel
Hum
%
Delta-T
°C
Wind Press
QNH
hPa
Press
MSL
hPa
Rain since
9am
mm
Dir  Spd
km/h
Gust
km/h
Spd
kts
Gust
kts
17/10:00pm 17.7 - 16.4 92 0.8 - - - - - - - 0.0
17/09:30pm 17.6 - 16.1 91 0.9 - - - - - - - 0.0
17/09:00pm 18.2 - 16.2 88 1.2 - - - - - - - 0.0
17/08:30pm 18.7 - 15.9 84 1.7 - - - - - - - 0.0
17/08:00pm 19.3 - 16.0 81 2.0 - - - - - - - 0.0
17/07:30pm 20.2 - 16.0 77 2.6 - - - - - - - 0.0
17/07:00pm 21.3 - 15.8 71 3.3 - - - - - - - 0.0
17/06:30pm 22.4 - 15.5 65 4.2 - - - - - - - 0.0
17/06:00pm 23.9 - 16.2 62 4.8 - - - - - - - 0.0
17/05:30pm 25.2 - 16.4 58 5.5 - - - - - - - 0.0
17/05:00pm 26.0 - 15.4 52 6.5 - - - - - - - 0.0
17/04:30pm 26.7 - 15.1 49 7.1 - - - - - - - 0.0
17/04:00pm 27.9 - 12.7 39 9.0 - - - - - - - 0.0
17/03:30pm 28.3 - 13.4 40 9.0 - - - - - - - 0.0
17/03:00pm 28.7 - 14.1 40 8.9 - - - - - - - 0.0
17/02:30pm 29.0 - 15.2 43 8.6 - - - - - - - 0.0
17/02:00pm 29.1 - 15.2 42 8.6 - - - - - - - 0.0
17/01:30pm 28.6 - 15.2 44 8.3 - - - - - - - 0.0
17/01:00pm 28.7 - 16.6 48 7.7 - - - - - - - 0.0
17/12:30pm 28.9 - 16.8 48 7.7 - - - - - - - 0.0
17/12:00pm 28.2 - 15.8 47 7.7 - - - - - - - 0.0
17/11:30am 27.7 - 15.4 47 7.6 - - - - - - - 0.0
17/11:00am 26.8 - 15.5 50 7.0 - - - - - - - 0.0
17/10:30am 25.8 - 16.1 55 6.0 - - - - - - - 0.0
17/10:00am 25.0 - 15.6 56 5.8 - - - - - - - 0.0
17/09:30am 24.1 - 14.8 56 5.6 - - - - - - - 0.0
17/09:00am 23.9 - 15.7 60 5.0 - - - - - - - 0.0
17/08:30am 22.8 - 16.6 68 3.8 - - - - - - - 0.0
17/08:00am 21.8 - 16.7 73 3.2 - - - - - - - 0.0
17/07:30am 19.5 - 17.6 89 1.2 - - - - - - - 0.0
17/07:00am 17.5 - 17.3 99 0.1 - - - - - - - 0.0
17/06:30am 17.1 - 16.9 99 0.1 - - - - - - - 0.0
17/06:00am 16.4 - 16.2 99 0.1 - - - - - - - 0.0
17/05:30am 16.4 - 15.8 96 0.4 - - - - - - - 0.0
17/05:00am 16.9 - 15.2 90 1.0 - - - - - - - 0.0
17/04:30am 17.6 - 12.3 71 3.0 - - - - - - - 0.0
17/04:00am 17.7 - 11.3 66 3.5 - - - - - - - 0.0
17/03:30am 18.3 - 10.9 62 4.1 - - - - - - - 0.0
17/03:00am 17.9 - 12.1 69 3.3 - - - - - - - 0.0
17/02:30am 17.9 - 13.2 74 2.7 - - - - - - - 0.0
17/02:00am 18.7 - 12.7 68 3.4 - - - - - - - 0.0
17/01:30am 19.6 - 11.9 61 4.3 - - - - - - - 0.0
17/01:00am 21.0 - 10.8 52 5.7 - - - - - - - 0.0
17/12:30am 22.6 - 10.7 47 6.7 - - - - - - - 0.0
17/12:00am 21.6 - 10.1 48 6.4 - - - - - - - 0.0
 
Date/Time
WST
Temp
°C
App
Temp
°C
Dew
Point
°C
Rel
Hum
%
Delta-T
°C
Wind Press
QNH
hPa
Press
MSL
hPa
Rain since
9am
mm
Dir  Spd
km/h
Gust
km/h
Spd
kts
Gust
kts
16/11:30pm 22.5 - 12.4 52 5.8 - - - - - - - 0.0
16/11:00pm 23.6 - 11.6 47 6.9 - - - - - - - 0.0
16/10:30pm 23.3 - 12.3 50 6.4 - - - - - - - 0.0
16/10:00pm 23.5 - 12.8 51 6.3 - - - - - - - 0.0
16/09:30pm 22.5 - 12.7 54 5.7 - - - - - - - 0.0
16/09:00pm 23.1 - 12.1 50 6.3 - - - - - - - 0.0
16/08:30pm 24.0 - 11.7 46 7.1 - - - - - - - 0.0
16/08:00pm 24.8 - 10.7 41 8.0 - - - - - - - 0.0
16/07:30pm 25.3 - 12.2 44 7.6 - - - - - - - 0.0
16/07:00pm 25.8 - 13.0 45 7.6 - - - - - - - 0.0
16/06:30pm 26.8 - 13.2 43 8.1 - - - - - - - 0.0
16/06:00pm 28.7 - 13.0 38 9.4 - - - - - - - 0.0
16/05:30pm 30.0 - 11.5 32 10.9 - - - - - - - 0.0
16/05:00pm 31.6 - 8.6 24 13.0 - - - - - - - 0.0
16/04:30pm 33.3 - 9.4 23 13.8 - - - - - - - 0.0
16/04:00pm 34.4 - 7.5 19 15.2 - - - - - - - 0.0
16/03:30pm 36.4 - 9.8 20 15.7 - - - - - - - 0.0
16/03:00pm 38.1 - 4.9 13 18.3 - - - - - - - 0.0
16/02:30pm 38.2 - 2.6 11 19.0 - - - - - - - 0.0
16/02:00pm 37.4 - 5.4 14 17.7 - - - - - - - 0.0
16/01:30pm 37.4 - 8.2 17 16.9 - - - - - - - 0.0
16/01:00pm 35.4 - 9.7 21 15.1 - - - - - - - 0.0
16/12:30pm 34.8 - 9.9 22 14.6 - - - - - - - 0.0
16/12:00pm 33.1 - 10.4 25 13.3 - - - - - - - 0.0
16/11:30am 31.8 - 11.6 29 12.0 - - - - - - - 0.0
16/11:00am 30.3 - 12.7 34 10.6 - - - - - - - 0.0
16/10:30am 28.1 - 12.5 38 9.3 - - - - - - - 0.0
16/10:00am 27.6 - 11.2 36 9.5 - - - - - - - 0.0
16/09:30am 25.7 - 11.5 41 8.2 - - - - - - - 0.0
16/09:00am 24.0 - 11.7 46 7.1 - - - - - - - 0.0
16/08:30am 22.3 - 11.7 51 6.0 - - - - - - - 0.0
16/08:00am 20.5 - 11.4 56 5.1 - - - - - - - 0.0
16/07:30am 19.0 - 11.3 61 4.3 - - - - - - - 0.0
16/07:00am 17.7 - 10.8 64 3.8 - - - - - - - 0.0
16/06:30am 16.4 - 10.3 67 3.3 - - - - - - - 0.0
16/06:00am 15.4 - 10.2 71 2.8 - - - - - - - 0.0
16/05:30am 15.1 - 9.9 71 2.8 - - - - - - - 0.0
16/05:00am 15.2 - 9.8 70 2.9 - - - - - - - 0.0
16/04:30am 15.6 - 9.7 68 3.1 - - - - - - - 0.0
16/04:00am 16.2 - 9.8 66 3.4 - - - - - - - 0.0
16/03:30am 16.9 - 9.8 63 3.8 - - - - - - - 0.0
16/03:00am 17.6 - 9.8 60 4.2 - - - - - - - 0.0
16/02:30am 18.4 - 9.7 57 4.7 - - - - - - - 0.0
16/02:00am 19.5 - 9.4 52 5.4 - - - - - - - 0.0
16/01:30am 20.7 - 9.3 48 6.2 - - - - - - - 0.0
16/01:00am 21.8 - 9.0 44 6.9 - - - - - - - 0.0
16/12:30am 22.2 - 8.7 42 7.3 - - - - - - - 0.0
16/12:00am 23.1 - 8.4 39 7.9 - - - - - - - 0.0
 
Date/Time
WST
Temp
°C
App
Temp
°C
Dew
Point
°C
Rel
Hum
%
Delta-T
°C
Wind Press
QNH
hPa
Press
MSL
hPa
Rain since
9am
mm
Dir  Spd
km/h
Gust
km/h
Spd
kts
Gust
kts
15/11:30pm 23.5 - 7.6 36 8.5 - - - - - - - 0.0
15/11:00pm 24.8 - 7.0 32 9.5 - - - - - - - 0.0
15/10:30pm 25.7 - 6.8 30 10.1 - - - - - - - 0.0
15/10:00pm 26.8 - 6.2 27 10.9 - - - - - - - 0.0
15/09:30pm 28.3 - 6.4 25 11.8 - - - - - - - 0.0
15/09:00pm 28.5 - 7.1 26 11.6 - - - - - - - 0.0
15/08:30pm 28.6 - 7.2 26 11.7 - - - - - - - 0.0
15/08:00pm 27.5 - 8.9 31 10.4 - - - - - - - 0.0
15/07:30pm 28.6 - 8.8 29 11.1 - - - - - - - 0.0
15/07:00pm 29.0 - 9.2 29 11.2 - - - - - - - 0.0
15/06:30pm 30.1 - 10.1 29 11.5 - - - - - - - 0.0
15/06:00pm 32.3 - 9.2 24 13.2 - - - - - - - 0.0
15/05:30pm 33.6 - 7.6 20 14.6 - - - - - - - 0.0
15/05:00pm 34.4 - 8.2 20 14.9 - - - - - - - 0.0
15/04:30pm 34.6 - 7.6 19 15.3 - - - - - - - 0.0
15/04:00pm 35.2 - 5.6 16 16.3 - - - - - - - 0.0
15/03:30pm 35.0 - 4.5 15 16.5 - - - - - - - 0.0
15/03:00pm 34.4 - 5.0 16 15.9 - - - - - - - 0.0
15/02:30pm 34.8 - 6.2 17 15.8 - - - - - - - 0.0
15/02:00pm 33.4 - 7.4 20 14.6 - - - - - - - 0.0
15/01:30pm 33.1 - 9.2 23 13.8 - - - - - - - 0.0
15/01:00pm 31.4 - 7.8 23 13.2 - - - - - - - 0.0
15/12:30pm 31.0 - 8.7 25 12.6 - - - - - - - 0.0
15/12:00pm 31.1 - 8.8 25 12.6 - - - - - - - 0.0
15/11:30am 30.4 - 9.8 28 11.8 - - - - - - - 0.0
15/11:00am 29.3 - 9.9 30 11.1 - - - - - - - 0.0
15/10:30am 27.3 - 9.6 33 10.0 - - - - - - - 0.0
15/10:00am 26.1 - 9.5 35 9.3 - - - - - - - 0.0
15/09:30am 25.3 - 10.4 39 8.4 - - - - - - - 0.0
15/09:00am 23.5 - 10.6 44 7.3 - - - - - - - 0.0
15/08:30am 20.9 - 9.5 48 6.2 - - - - - - - 0.0
15/08:00am 20.7 - 10.2 51 5.8 - - - - - - - 0.0
15/07:30am 18.6 - 9.4 55 4.9 - - - - - - - 0.0
15/07:00am 17.6 - 9.5 59 4.3 - - - - - - - 0.0
15/06:30am 16.5 - 9.2 62 3.9 - - - - - - - 0.0
15/06:00am 15.7 - 8.7 63 3.6 - - - - - - - 0.0
15/05:30am 15.8 - 8.5 62 3.8 - - - - - - - 0.0
15/05:00am 15.8 - 8.5 62 3.8 - - - - - - - 0.0
15/04:30am 16.4 - 8.4 59 4.2 - - - - - - - 0.0
15/04:00am 16.9 - 8.1 56 4.6 - - - - - - - 0.0
15/03:30am 17.5 - 7.8 53 5.0 - - - - - - - 0.0
15/03:00am 18.0 - 7.7 51 5.3 - - - - - - - 0.0
15/02:30am 18.6 - 7.4 48 5.8 - - - - - - - 0.0
15/02:00am 19.0 - 7.8 48 5.8 - - - - - - - 0.0
15/01:30am 19.7 - 8.7 49 5.9 - - - - - - - 0.0
15/01:00am 20.1 - 9.7 51 5.7 - - - - - - - 0.0
15/12:30am 21.0 - 10.2 50 6.0 - - - - - - - 0.0
15/12:00am 22.2 - 10.7 48 6.4 - - - - - - - 0.0
 
Date/Time
WST
Temp
°C
App
Temp
°C
Dew
Point
°C
Rel
Hum
%
Delta-T
°C
Wind Press
QNH
hPa
Press
MSL
hPa
Rain since
9am
mm
Dir  Spd
km/h
Gust
km/h
Spd
kts
Gust
kts
14/11:30pm 23.1 - 10.5 45 7.1 - - - - - - - 0.0
14/11:00pm 24.0 - 10.3 42 7.7 - - - - - - - 0.0
14/10:30pm 24.9 - 9.6 38 8.5 - - - - - - - 0.0

Latest Capital City Observations: Canberra | Sydney | Melbourne | Brisbane | Adelaide | Perth | Hobart | Darwin

Other formats

Comma delimited format used in spreadsheet applications
http://www.bom.gov.au/fwo/IDW60901/IDW60901.95610.axf

JavaScript Object Notation format (JSON) in row-major order
http://www.bom.gov.au/fwo/IDW60901/IDW60901.95610.json

Data quality

Most of these data are generated automatically and are frequently updated. Quality checks on data are not normally performed. It is possible for incorrect values to appear. Refer to information at About Latest Weather Observations and please check the disclaimer before using these data.